Little Rock Air Force Base, Arkansas
Current Conditions -  °F | °C
As of 12:58 PM on Saturday 25 Oct 2014 (Local Time) from KLRF Reporting Station
Clear Clear  
Wind Chill: 28°   Ceiling: Unl
Heat Index: 28°   Visibility: 10mi
Dew Point: 17°   Wind: 7mph
Humidity: 54%   Direction: 250°WSW
Pressure: 30.07"   Gusts: NA
Location:  34.9074°N, 92.1397°W
Report Text: KLRF 251758Z AUTO 25006KT 10SM CLR 28/17 A3007 RMK AO2 SLP184 T02750174 10275 20108
Loading
Personal Weather Stations






























Interactive Weather Map
Tropical Storm Tracking
New forecast layout! Learn more

10-Day Weather Forecast

Advertisements
Track Severe Weather on mobile